createdAt,value
2018-11-02T06:49:13.594Z,100.00
2018-11-02T06:51:42.712Z,99.89
2018-11-02T06:54:11.859Z,99.21
2018-11-02T06:56:40.988Z,98.60
2018-11-02T06:59:10.211Z,98.23
2018-11-02T07:01:39.257Z,99.21
2018-11-02T07:04:08.296Z,98.49
2018-11-02T07:06:37.300Z,98.10
2018-11-02T07:09:09.528Z,97.87
2018-11-02T07:11:38.741Z,97.23
2018-11-02T07:14:10.692Z,97.69
2018-11-02T07:16:39.807Z,97.83
2018-11-02T07:19:09.314Z,97.47
2018-11-02T07:21:38.420Z,97.12
2018-11-02T07:24:08.030Z,96.79
2018-11-02T07:26:37.078Z,96.33
2018-11-02T07:29:06.826Z,96.29
2018-11-02T07:31:42.199Z,95.80
2018-11-02T07:34:11.279Z,96.66
2018-11-02T07:36:40.330Z,97.60
2018-11-02T07:39:27.322Z,95.89
2018-11-02T07:41:56.689Z,93.82
2018-11-02T07:44:25.887Z,93.92
2018-11-02T07:46:56.386Z,92.13
2018-11-02T07:49:25.795Z,91.69
2018-11-02T07:51:54.788Z,90.80
2018-11-02T07:54:24.123Z,91.24
2018-11-02T07:56:53.168Z,91.04
2018-11-02T07:59:22.565Z,90.43
2018-11-02T08:01:51.803Z,90.32
2018-11-02T08:04:20.561Z,91.66
2018-11-02T08:06:49.629Z,92.62
2018-11-02T08:09:18.553Z,92.38
2018-11-02T08:11:47.371Z,91.94
2018-11-02T08:14:16.320Z,91.61
2018-11-02T08:16:45.289Z,92.98
2018-11-02T08:19:14.227Z,92.68
2018-11-02T08:21:43.117Z,93.84
2018-11-02T08:24:12.069Z,94.36
2018-11-02T08:26:41.388Z,94.28
2018-11-02T08:29:10.630Z,94.51
2018-11-02T08:31:39.820Z,91.58
2018-11-02T08:34:08.858Z,90.75
2018-11-02T08:36:37.823Z,88.18
2018-11-02T08:39:09.485Z,88.15
2018-11-02T08:41:38.429Z,87.63
2018-11-02T08:44:07.842Z,88.40
2018-11-02T08:46:36.968Z,88.80
2018-11-02T08:49:05.902Z,89.31
2018-11-02T08:51:34.884Z,88.72
2018-11-02T08:54:03.846Z,89.48
2018-11-02T08:56:32.807Z,90.97
2018-11-02T08:59:01.836Z,89.91
2018-11-02T09:01:31.067Z,89.69
2018-11-02T09:04:00.019Z,89.59
2018-11-02T09:06:29.008Z,88.36
2018-11-02T09:08:58.092Z,86.39
2018-11-02T09:11:27.211Z,84.17
2018-11-02T09:13:56.433Z,80.92
2018-11-02T09:16:25.683Z,77.49
2018-11-02T09:18:54.825Z,76.73
2018-11-02T09:21:23.920Z,72.40
2018-11-02T09:23:53.157Z,70.59
2018-11-02T09:26:22.595Z,69.83
2018-11-02T09:28:52.089Z,71.49
2018-11-02T09:31:25.444Z,69.54
2018-11-02T09:33:55.674Z,69.98
2018-11-02T09:36:24.872Z,71.46
2018-11-02T09:38:54.146Z,69.68
2018-11-02T09:41:23.483Z,69.93
2018-11-02T09:43:52.650Z,69.06
2018-11-02T09:46:23.080Z,68.11
2018-11-02T09:48:52.228Z,67.97
2018-11-02T09:51:21.471Z,69.68
2018-11-02T09:53:50.613Z,67.44
2018-11-02T09:56:19.716Z,67.41
2018-11-02T09:58:48.992Z,67.65
2018-11-02T10:01:18.204Z,67.96
2018-11-02T10:03:47.356Z,68.06
2018-11-02T10:06:16.625Z,69.19
2018-11-02T10:08:45.789Z,67.95
2018-11-02T10:11:14.903Z,65.61
2018-11-02T10:13:44.093Z,66.65
2018-11-02T10:16:13.477Z,65.71
2018-11-02T10:18:42.734Z,67.86
2018-11-02T10:21:11.897Z,66.81
2018-11-02T10:23:41.048Z,65.69
2018-11-02T10:26:10.266Z,67.88
2018-11-02T10:28:39.609Z,66.23
2018-11-02T10:31:08.907Z,62.16
2018-11-02T10:33:38.070Z,61.77
2018-11-02T10:36:07.367Z,60.65
2018-11-02T10:38:36.658Z,60.86
2018-11-02T10:41:06.798Z,61.17
2018-11-02T10:43:36.429Z,60.95
2018-11-02T10:46:05.784Z,62.27
2018-11-02T10:48:34.976Z,59.26
2018-11-02T10:51:05.082Z,60.17
2018-11-02T10:53:34.219Z,57.04
2018-11-02T10:56:03.716Z,56.75
2018-11-02T10:58:33.070Z,57.01
2018-11-02T11:01:07.826Z,57.08
2018-11-02T11:03:36.900Z,53.91
2018-11-02T11:06:06.240Z,55.89
2018-11-02T11:08:35.395Z,56.96
2018-11-02T11:11:04.670Z,56.53
2018-11-02T11:13:33.918Z,57.98
2018-11-02T11:16:02.980Z,59.80
2018-11-02T11:18:32.178Z,58.54
2018-11-02T11:21:01.537Z,59.04
2018-11-02T11:23:30.643Z,58.19
2018-11-02T11:25:59.716Z,57.62
2018-11-02T11:28:28.850Z,58.02
2018-11-02T11:30:58.380Z,57.69
2018-11-02T11:33:27.521Z,57.36
2018-11-02T11:35:56.616Z,56.37
2018-11-02T11:38:25.783Z,55.97
2018-11-02T11:40:54.993Z,55.65
2018-11-02T11:43:24.112Z,57.04
2018-11-02T11:45:53.237Z,59.76
2018-11-02T11:48:22.603Z,58.91
2018-11-02T11:50:51.782Z,57.13
2018-11-02T11:53:20.925Z,58.03
2018-11-02T11:55:50.800Z,58.75
2018-11-02T11:58:19.898Z,59.55
2018-11-02T12:00:49.024Z,61.91
2018-11-02T12:03:18.156Z,64.78
2018-11-02T12:05:47.367Z,65.63
2018-11-02T12:08:16.483Z,64.56
2018-11-02T12:10:45.687Z,65.05
2018-11-02T12:13:14.929Z,64.50
2018-11-02T12:15:44.132Z,64.92
2018-11-02T12:18:13.410Z,66.04
2018-11-02T12:20:42.672Z,66.71
2018-11-02T12:23:11.846Z,67.39
2018-11-02T12:25:40.945Z,68.26
2018-11-02T12:28:10.110Z,69.03
2018-11-02T12:30:39.211Z,68.52
2018-11-02T12:33:08.397Z,70.28
2018-11-02T12:35:37.431Z,69.68
2018-11-02T12:38:06.610Z,69.95
2018-11-02T12:40:35.677Z,70.85
2018-11-02T12:43:05.523Z,70.38
2018-11-02T12:45:34.642Z,70.74
2018-11-02T12:48:03.888Z,71.48
2018-11-02T12:50:32.966Z,72.53
2018-11-02T12:53:02.087Z,72.17
2018-11-02T12:55:31.177Z,73.43
2018-11-02T12:58:00.260Z,74.08
2018-11-02T13:00:29.437Z,74.15
2018-11-02T13:02:58.608Z,74.61
2018-11-02T13:05:27.770Z,74.93
2018-11-02T13:07:57.031Z,74.60
2018-11-02T13:10:26.220Z,74.27
2018-11-02T13:12:55.409Z,73.88
2018-11-02T13:15:24.858Z,73.92
2018-11-02T13:17:54.083Z,75.34
2018-11-02T13:20:23.228Z,75.30
2018-11-02T13:22:52.412Z,75.65
2018-11-02T13:25:21.969Z,75.33
2018-11-02T13:27:51.700Z,75.51
2018-11-02T13:30:21.003Z,75.73
2018-11-02T13:32:50.079Z,77.08
2018-11-02T13:35:19.767Z,78.14
2018-11-02T13:37:49.474Z,78.19
2018-11-02T13:40:18.916Z,79.46
2018-11-02T13:42:48.141Z,79.50
2018-11-02T13:45:17.989Z,80.51
2018-11-02T13:47:47.147Z,80.17
2018-11-02T13:50:16.277Z,79.77
2018-11-02T13:52:45.474Z,79.72
2018-11-02T13:55:14.626Z,79.66
2018-11-02T13:57:43.739Z,79.63
2018-11-02T14:00:14.601Z,79.62
2018-11-02T14:02:43.792Z,81.20
2018-11-02T14:05:14.133Z,81.55
2018-11-02T14:07:43.263Z,80.90
2018-11-02T14:10:13.023Z,80.70
2018-11-02T14:12:43.063Z,79.60
2018-11-02T14:15:13.721Z,80.08
2018-11-02T14:17:43.166Z,80.28
2018-11-02T14:20:13.172Z,80.87
2018-11-02T14:22:42.314Z,82.03
2018-11-02T14:25:12.847Z,82.64
2018-11-02T14:27:41.979Z,82.57
2018-11-02T14:30:15.995Z,82.95
2018-11-02T14:32:45.984Z,83.54
2018-11-02T14:35:15.081Z,86.28
2018-11-02T14:37:44.245Z,87.96
2018-11-02T14:40:13.447Z,88.83
2018-11-02T14:42:42.768Z,89.39
2018-11-02T14:45:14.633Z,89.95
2018-11-02T14:47:44.671Z,89.58
2018-11-02T14:50:13.829Z,90.14
2018-11-02T14:52:42.893Z,90.41
2018-11-02T14:55:12.091Z,91.28
2018-11-02T14:57:41.171Z,92.79
2018-11-02T15:00:11.543Z,92.50
2018-11-02T15:02:41.241Z,92.80
2018-11-02T15:05:11.911Z,93.19
2018-11-02T15:07:42.862Z,93.37
2018-11-02T15:10:12.047Z,93.21
2018-11-02T15:12:41.173Z,93.98
2018-11-02T15:15:10.389Z,94.00
2018-11-02T15:17:39.841Z,94.08
2018-11-02T15:20:11.925Z,95.00
2018-11-02T15:22:41.072Z,96.02
2018-11-02T15:25:10.494Z,96.56
2018-11-02T15:27:39.959Z,96.09
2018-11-02T15:30:11.598Z,95.96
2018-11-02T15:32:41.279Z,94.32
2018-11-02T15:35:11.282Z,93.78
2018-11-02T15:37:40.883Z,93.39
2018-11-02T15:40:11.235Z,93.68
2018-11-02T15:42:40.611Z,92.49
2018-11-02T15:45:12.894Z,92.40
2018-11-02T15:47:42.538Z,92.53
2018-11-02T15:50:11.792Z,92.31
2018-11-02T15:52:41.045Z,91.29
2018-11-02T15:55:11.236Z,91.25
2018-11-02T15:57:40.336Z,91.05
2018-11-02T16:00:14.942Z,90.66
2018-11-02T16:02:45.296Z,90.51
2018-11-02T16:05:14.424Z,89.91
2018-11-02T16:07:43.504Z,88.47
2018-11-02T16:10:12.847Z,88.76
2018-11-02T16:12:42.768Z,89.23
2018-11-02T16:15:12.158Z,88.44
2018-11-02T16:17:41.319Z,87.73
2018-11-02T16:20:13.500Z,87.89
2018-11-02T16:22:43.038Z,87.36
2018-11-02T16:25:12.927Z,87.59
2018-11-02T16:27:42.759Z,87.55
2018-11-02T16:30:12.303Z,87.87
2018-11-02T16:32:41.235Z,88.60
2018-11-02T16:35:11.073Z,89.00
2018-11-02T16:37:40.195Z,89.18
2018-11-02T16:40:13.208Z,89.23
2018-11-02T16:42:43.142Z,88.92
2018-11-02T16:45:13.112Z,88.11
2018-11-02T16:47:42.931Z,87.72
2018-11-02T16:50:13.125Z,87.15
2018-11-02T16:52:42.732Z,86.39
2018-11-02T16:55:11.838Z,86.77
2018-11-02T16:57:41.132Z,87.53
2018-11-02T17:00:15.753Z,87.87
2018-11-02T17:02:46.003Z,87.61
2018-11-02T17:05:16.235Z,87.52
2018-11-02T17:07:45.312Z,88.08
2018-11-02T17:10:15.347Z,87.75
2018-11-02T17:12:44.821Z,87.29
2018-11-02T17:15:14.275Z,87.10
2018-11-02T17:17:43.556Z,87.07
2018-11-02T17:20:14.279Z,87.07
2018-11-02T17:22:43.491Z,87.28
2018-11-02T17:25:13.223Z,86.92
2018-11-02T17:27:42.476Z,87.25
2018-11-02T17:30:15.590Z,87.76
2018-11-02T17:32:44.736Z,87.14
2018-11-02T17:35:13.991Z,86.99
2018-11-02T17:37:44.002Z,87.26
2018-11-02T17:40:14.452Z,87.29
2018-11-02T17:42:44.123Z,86.59
2018-11-02T17:45:13.334Z,86.50
2018-11-02T17:47:42.867Z,86.56
2018-11-02T17:50:14.175Z,86.75
2018-11-02T17:52:43.785Z,86.41
2018-11-02T17:55:13.810Z,86.91
2018-11-02T17:57:43.325Z,86.37
2018-11-02T18:00:13.521Z,87.40
2018-11-02T18:02:42.929Z,87.75
2018-11-02T18:05:14.408Z,87.48
2018-11-02T18:07:43.772Z,86.98
2018-11-02T18:10:18.931Z,86.73
2018-11-02T18:12:48.114Z,87.75
2018-11-02T18:15:18.270Z,87.95
2018-11-02T18:17:48.287Z,87.67
2018-11-02T18:20:17.436Z,86.97
2018-11-02T18:22:46.653Z,86.45
2018-11-02T18:25:16.959Z,86.66
2018-11-02T18:27:46.366Z,86.42
2018-11-02T18:30:16.496Z,87.21
2018-11-02T18:32:46.756Z,87.79
2018-11-02T18:35:16.052Z,87.28
2018-11-02T18:37:45.099Z,87.38
2018-11-02T18:40:14.198Z,88.17
2018-11-02T18:42:44.053Z,88.92
2018-11-02T18:45:14.663Z,89.17
2018-11-02T18:47:46.139Z,89.41
2018-11-02T18:50:17.081Z,90.04
2018-11-02T18:52:46.908Z,90.09
2018-11-02T18:55:17.034Z,90.44
2018-11-02T18:57:46.239Z,89.82
2018-11-02T19:00:16.515Z,89.97
2018-11-02T19:02:47.831Z,88.98
2018-11-02T19:05:18.095Z,89.20
2018-11-02T19:07:47.223Z,89.68
2018-11-02T19:10:17.048Z,89.68
2018-11-02T19:12:46.099Z,89.94
2018-11-02T19:15:17.546Z,90.21
2018-11-02T19:17:46.738Z,88.90
2018-11-02T19:20:16.210Z,88.28
2018-11-02T19:22:45.238Z,88.22
2018-11-02T19:25:15.735Z,87.68
2018-11-02T19:27:45.659Z,87.55
2018-11-02T19:30:15.220Z,89.88
2018-11-02T19:32:44.494Z,90.71
2018-11-02T19:35:14.253Z,91.77
2018-11-02T19:37:43.542Z,92.40
2018-11-02T19:40:14.044Z,93.47
2018-11-02T19:42:43.328Z,93.83
2018-11-02T19:45:12.759Z,94.64
2018-11-02T19:47:47.463Z,95.02
2018-11-02T19:50:17.577Z,95.70
2018-11-02T19:52:46.742Z,96.21
2018-11-02T19:55:15.896Z,97.08
2018-11-02T19:57:45.034Z,97.30
2018-11-02T20:00:15.633Z,96.73
2018-11-02T20:02:44.685Z,96.99
2018-11-02T20:05:15.971Z,96.96
2018-11-02T20:07:45.155Z,97.63
2018-11-02T20:10:15.231Z,97.70
2018-11-02T20:12:45.759Z,98.59
2018-11-02T20:15:15.356Z,98.48
2018-11-02T20:17:44.511Z,98.19
2018-11-02T20:20:14.630Z,98.67
2018-11-02T20:22:43.787Z,99.44
2018-11-02T20:25:14.483Z,99.24
2018-11-02T20:27:43.747Z,99.41
2018-11-02T20:30:17.847Z,99.76
2018-11-02T20:32:48.093Z,99.56
2018-11-02T20:35:17.269Z,99.70
2018-11-02T20:37:46.420Z,99.55
2018-11-02T20:40:17.256Z,100.00
2018-11-02T20:42:46.547Z,100.00
2018-11-02T20:45:16.243Z,99.92
2018-11-02T20:47:48.553Z,100.00
2018-11-02T20:50:17.771Z,100.00
2018-11-02T20:52:46.990Z,100.00
2018-11-02T20:55:16.618Z,100.00
2018-11-02T20:57:45.696Z,100.00
2018-11-02T21:00:17.331Z,100.00
2018-11-02T21:02:46.512Z,100.00
2018-11-02T21:05:17.417Z,100.00
2018-11-02T21:07:46.967Z,100.00
2018-11-02T21:10:17.354Z,100.00
2018-11-02T21:12:46.668Z,100.00
2018-11-02T21:15:17.239Z,100.00
2018-11-02T21:17:46.517Z,100.00
2018-11-02T21:20:18.880Z,100.00
2018-11-02T21:22:48.016Z,100.00
2018-11-02T21:25:17.160Z,100.00
2018-11-02T21:27:46.740Z,100.00
2018-11-02T21:30:17.907Z,100.00
2018-11-02T21:32:47.791Z,100.00
2018-11-02T21:35:17.673Z,100.00
2018-11-02T21:37:47.556Z,100.00
2018-11-02T21:40:18.111Z,100.00
2018-11-02T21:42:47.370Z,100.00
2018-11-02T21:45:18.124Z,100.00
2018-11-02T21:47:47.401Z,100.00
2018-11-02T21:50:16.787Z,100.00
2018-11-02T21:52:45.923Z,100.00
2018-11-02T21:55:15.114Z,100.00
2018-11-02T21:57:44.242Z,100.00
2018-11-02T22:00:18.294Z,100.00
2018-11-02T22:02:47.879Z,100.00
2018-11-02T22:05:17.115Z,100.00
2018-11-02T22:07:47.536Z,100.00
2018-11-02T22:10:17.154Z,100.00
2018-11-02T22:12:46.924Z,100.00
2018-11-02T22:15:16.816Z,100.00
2018-11-02T22:17:45.955Z,100.00
2018-11-02T22:20:15.576Z,100.00
2018-11-02T22:22:44.775Z,100.00
2018-11-02T22:25:14.695Z,100.00
2018-11-02T22:27:43.847Z,100.00
2018-11-02T22:30:15.041Z,100.00
2018-11-02T22:32:44.158Z,100.00
2018-11-02T22:35:13.987Z,100.00
2018-11-02T22:37:44.052Z,100.00
2018-11-02T22:40:13.748Z,100.00
2018-11-02T22:42:43.252Z,100.00
2018-11-02T22:45:13.318Z,100.00
2018-11-02T22:47:46.944Z,100.00
2018-11-02T22:50:16.053Z,100.00
2018-11-02T22:52:46.016Z,100.00
2018-11-02T22:55:15.973Z,100.00
2018-11-02T22:57:45.209Z,100.00
2018-11-02T23:00:16.679Z,100.00
2018-11-02T23:02:46.720Z,100.00
2018-11-02T23:05:15.938Z,100.00
2018-11-02T23:07:46.231Z,100.00
2018-11-02T23:10:15.506Z,100.00
2018-11-02T23:12:44.678Z,100.00
2018-11-02T23:15:13.877Z,100.00
2018-11-02T23:17:43.096Z,100.00
2018-11-02T23:20:13.775Z,100.00
2018-11-02T23:22:42.842Z,100.00
2018-11-02T23:25:12.466Z,100.00
2018-11-02T23:27:43.280Z,100.00
2018-11-02T23:30:12.579Z,100.00
2018-11-02T23:32:41.809Z,100.00
2018-11-02T23:35:10.974Z,100.00
2018-11-02T23:37:40.253Z,100.00
2018-11-02T23:40:10.929Z,100.00
2018-11-02T23:42:40.210Z,100.00
2018-11-02T23:45:10.455Z,100.00
2018-11-02T23:47:43.953Z,100.00
2018-11-02T23:50:13.071Z,100.00
2018-11-02T23:52:42.275Z,100.00
2018-11-02T23:55:11.495Z,100.00
2018-11-02T23:57:41.291Z,100.00
